Time;durP1;ratioP1;P1;durP2;ratioP2;P2;SDS_P1;SDS_P2;PMS_P1;PMS_P2;Temp;Humidity;BMP_temperature;BMP_pressure;BME280_temperature;BME280_humidity;BME280_pressure;Samples;Min_cycle;Max_cycle;Signal;HPM_P1;HPM_P2
2022/11/08 00:01:39;;;;;;;;;41.40;36.80;;;;;16.77;65.43;99962.41;5032157;28;8879;-78
2022/11/08 00:04:10;;;;;;;;;35.20;33.60;;;;;16.77;65.72;99962.41;5009699;28;9005;-79
2022/11/08 00:14:59;;;;;;;;;24.20;24.20;;;;;16.55;65.70;99961.94;4995351;28;8845;-79
2022/11/08 00:17:30;;;;;;;;;31.80;31.00;;;;;16.53;66.41;99958.47;4950589;28;8889;-82
2022/11/08 00:19:59;;;;;;;;;37.60;33.20;;;;;16.54;66.43;99962.84;4950391;28;8885;-80
2022/11/08 00:22:30;;;;;;;;;40.40;35.60;;;;;16.26;66.62;99965.09;4919170;28;8878;-79
2022/11/08 00:24:59;;;;;;;;;38.20;34.60;;;;;16.34;66.57;99960.56;4955993;28;8847;-80
2022/11/08 00:27:28;;;;;;;;;32.80;32.40;;;;;16.33;66.69;99957.97;4953912;28;8875;-80
2022/11/08 00:29:56;;;;;;;;;40.00;35.20;;;;;16.30;67.15;99958.03;4954606;28;8874;-82
2022/11/08 00:32:26;;;;;;;;;32.40;32.40;;;;;16.48;65.96;99962.09;4953506;28;8891;-82
2022/11/08 00:34:56;;;;;;;;;33.20;30.80;;;;;16.40;66.57;99964.84;4975686;28;8967;-80
2022/11/08 00:37:24;;;;;;;;;31.40;27.20;;;;;16.54;66.42;99954.97;4989093;28;8890;-80
2022/11/08 00:39:53;;;;;;;;;36.80;31.80;;;;;16.09;67.19;99964.53;4981310;28;8900;-80
2022/11/08 00:42:22;;;;;;;;;29.60;27.00;;;;;16.41;66.90;99960.44;5014276;28;8878;-79
2022/11/08 00:44:50;;;;;;;;;35.20;31.00;;;;;16.36;66.54;99952.66;5010492;28;8858;-80
2022/11/08 00:47:19;;;;;;;;;31.20;29.60;;;;;16.29;66.82;99956.28;4993256;28;8964;-79
2022/11/08 00:49:48;;;;;;;;;28.20;25.60;;;;;16.31;66.42;99960.66;5051656;28;8867;-79
2022/11/08 00:52:17;;;;;;;;;29.00;26.80;;;;;16.48;66.60;99952.44;5044598;28;8840;-82
2022/11/08 00:54:46;;;;;;;;;32.20;30.60;;;;;16.61;65.98;99953.06;5031724;28;8879;-80
2022/11/08 00:57:15;;;;;;;;;24.80;23.80;;;;;16.72;66.14;99952.88;5026784;28;8869;-80
2022/11/08 00:59:44;;;;;;;;;35.60;30.40;;;;;16.79;65.70;99951.00;5019931;28;8857;-79
2022/11/08 01:02:12;;;;;;;;;28.80;27.20;;;;;16.62;65.37;99946.06;5033317;28;8873;-79
2022/11/08 01:04:41;;;;;;;;;35.00;30.40;;;;;16.50;65.34;99941.88;5049657;28;8861;-81
2022/11/08 01:07:10;;;;;;;;;30.40;27.80;;;;;16.71;65.30;99940.59;5050813;28;10143;-81
2022/11/08 01:09:40;;;;;;;;;33.00;27.80;;;;;16.86;65.36;99950.00;5050124;28;8860;-81
2022/11/08 01:12:08;;;;;;;;;29.80;28.40;;;;;16.65;65.00;99938.94;5033062;28;8861;-80
2022/11/08 01:14:37;;;;;;;;;36.60;32.60;;;;;16.75;64.69;99940.50;5050522;28;8861;-79
2022/11/08 01:17:05;;;;;;;;;31.40;30.80;;;;;16.86;64.87;99942.09;5029965;28;8845;-79
2022/11/08 01:19:34;;;;;;;;;34.80;29.80;;;;;16.76;65.06;99933.47;5016802;28;8845;-81
2022/11/08 01:22:02;;;;;;;;;38.60;33.00;;;;;16.87;64.85;99941.22;5046197;28;8964;-80
2022/11/08 01:24:31;;;;;;;;;38.40;34.60;;;;;16.88;65.11;99935.91;5066933;28;8953;-80
2022/11/08 01:27:01;;;;;;;;;31.60;29.80;;;;;16.99;65.22;99937.44;5050896;28;8869;-80
2022/11/08 01:29:30;;;;;;;;;33.60;31.60;;;;;17.05;64.63;99932.94;5066678;28;8875;-78
2022/11/08 01:31:59;;;;;;;;;34.40;30.40;;;;;17.06;64.25;99934.66;4998465;28;8858;-81
2022/11/08 01:34:27;;;;;;;;;35.60;33.60;;;;;17.02;64.30;99932.13;5031432;28;8849;-79
2022/11/08 01:36:56;;;;;;;;;31.20;27.60;;;;;17.10;64.43;99933.69;5014769;28;8834;-79
2022/11/08 01:39:24;;;;;;;;;33.40;32.40;;;;;17.13;64.05;99933.63;5047481;28;8861;-81
2022/11/08 01:41:53;;;;;;;;;36.00;31.80;;;;;17.00;63.91;99934.78;5013889;28;8865;-81
2022/11/08 01:44:23;;;;;;;;;32.40;30.00;;;;;16.09;66.98;99946.13;5042864;28;8866;-82
2022/11/08 01:46:52;;;;;;;;;17.00;13.40;;;;;16.11;67.21;99942.56;5042599;28;8830;-81
2022/11/08 01:49:35;;;;;;;;;35.00;33.00;;;;;16.17;67.43;99942.44;5016213;28;8866;-79
2022/11/08 01:52:24;;;;;;;;;35.80;31.00;;;;;16.38;67.01;99930.66;5025719;28;8872;-80
2022/11/08 01:55:01;;;;;;;;;27.00;24.00;;;;;16.46;66.65;99932.28;5018111;28;8844;-80
2022/11/08 01:57:36;;;;;;;;;33.80;30.60;;;;;16.59;66.63;99928.53;5026608;28;8872;-80
2022/11/08 02:00:11;;;;;;;;;36.60;29.20;;;;;16.76;66.36;99931.69;5026327;28;8975;-81
2022/11/08 02:02:42;;;;;;;;;39.20;32.40;;;;;16.87;65.68;99928.91;5030109;28;8853;-80
2022/11/08 02:05:24;;;;;;;;;40.80;33.80;;;;;16.85;65.53;99932.47;5048726;28;8845;-79
2022/11/08 02:07:58;;;;;;;;;34.60;32.80;;;;;16.45;66.51;99933.19;5042532;28;8869;-79
2022/11/08 02:10:32;;;;;;;;;43.20;34.60;;;;;16.59;66.07;99936.44;5048145;28;8857;-79
2022/11/08 02:13:02;;;;;;;;;42.25;37.75;;;;;15.86;68.79;99941.19;5063644;28;8888;-81
2022/11/08 02:15:36;;;;;;;;;40.25;34.50;;;;;15.83;68.71;99933.38;5056599;28;8907;-79
2022/11/08 02:18:04;;;;;;;;;37.20;32.40;;;;;16.07;68.32;99934.75;5033186;28;8902;-80
2022/11/08 02:20:34;;;;;;;;;40.60;34.80;;;;;16.13;67.71;99932.88;4996475;28;8874;-79
2022/11/08 02:23:12;;;;;;;;;45.60;36.20;;;;;16.14;67.93;99934.63;4996954;28;8907;-82
2022/11/08 02:25:43;;;;;;;;;46.00;35.80;;;;;15.89;69.09;99934.13;4991437;28;8851;-78
2022/11/08 02:28:11;;;;;;;;;53.40;36.60;;;;;15.97;68.58;99937.53;5018680;28;9000;-80
2022/11/08 02:30:41;;;;;;;;;36.00;32.20;;;;;16.07;68.12;99934.75;4998669;28;8885;-79
2022/11/08 02:33:17;;;;;;;;;39.60;34.60;;;;;15.74;69.64;99943.13;5017895;28;8916;-79
2022/11/08 02:35:50;;;;;;;;;33.00;27.60;;;;;15.67;70.17;99940.59;5011138;28;8894;-79
2022/11/08 02:38:18;;;;;;;;;43.00;35.75;;;;;15.56;70.28;99946.88;4985247;28;8929;-78
2022/11/08 02:40:51;;;;;;;;;42.00;35.40;;;;;15.63;70.62;99947.66;4999894;28;8867;-80
2022/11/08 02:43:20;;;;;;;;;45.80;35.20;;;;;15.84;69.87;99943.88;4995368;28;9497;-79
2022/11/08 02:45:50;;;;;;;;;50.50;40.25;;;;;15.50;70.63;99941.72;4960143;28;8876;-79
2022/11/08 02:48:20;;;;;;;;;45.00;33.25;;;;;15.07;72.62;99947.53;4993187;28;8845;-80
2022/11/08 02:50:49;;;;;;;;;37.60;32.80;;;;;14.69;74.59;99945.34;4977162;28;8860;-80
2022/11/08 02:53:17;;;;;;;;;48.00;37.00;;;;;15.15;73.10;99945.69;4993186;28;9748;-81
2022/11/08 02:55:46;;;;;;;;;50.20;38.80;;;;;14.82;73.83;99947.84;4960635;28;8838;-79
2022/11/08 02:58:16;;;;;;;;;47.60;37.40;;;;;14.80;74.48;99949.63;5008543;28;8906;-78
2022/11/08 03:00:46;;;;;;;;;45.80;38.20;;;;;14.95;73.68;99956.44;4992290;28;8862;-79
2022/11/08 03:03:14;;;;;;;;;46.80;36.60;;;;;15.05;73.12;99957.19;5026156;28;8898;-82
2022/11/08 03:05:43;;;;;;;;;43.00;37.80;;;;;14.43;76.15;99957.81;5022817;28;8859;-80
2022/11/08 03:08:11;;;;;;;;;53.80;40.00;;;;;14.47;76.74;99963.91;5025730;28;8878;-81
2022/11/08 03:10:40;;;;;;;;;48.25;37.00;;;;;14.54;76.54;99962.13;5025583;28;9057;-80
2022/11/08 03:13:09;;;;;;;;;45.60;38.60;;;;;14.80;75.81;99956.59;5024805;28;9625;-80
2022/11/08 03:15:39;;;;;;;;;37.60;35.40;;;;;15.07;74.92;99952.78;5001336;28;8832;-80
2022/11/08 03:18:08;;;;;;;;;48.50;40.00;;;;;14.69;75.65;99958.47;4979728;28;9593;-80
2022/11/08 03:20:36;;;;;;;;;54.00;39.50;;;;;14.27;77.96;99963.22;5045111;28;8876;-81
2022/11/08 03:23:06;;;;;;;;;48.75;36.75;;;;;14.30;78.33;99966.69;5016583;28;8914;-80
2022/11/08 03:25:35;;;;;;;;;51.00;38.00;;;;;14.33;77.95;99964.06;5045626;28;8861;-81
2022/11/08 03:28:05;;;;;;;;;47.40;37.20;;;;;14.12;79.13;99961.59;5044486;28;8868;-79
2022/11/08 03:30:34;;;;;;;;;50.75;39.50;;;;;14.16;79.16;99965.97;5046154;28;8875;-80
2022/11/08 03:33:05;;;;;;;;;45.40;36.20;;;;;14.66;77.80;99966.41;5041882;28;8849;-79
2022/11/08 03:35:33;;;;;;;;;47.50;36.00;;;;;14.90;76.58;99957.38;5005090;28;9574;-80
2022/11/08 03:38:02;;;;;;;;;52.00;37.40;;;;;14.90;75.86;99962.66;5054808;28;8888;-80
2022/11/08 03:40:31;;;;;;;;;43.00;37.00;;;;;14.98;75.56;99963.41;5067280;28;8849;-80
2022/11/08 03:42:59;;;;;;;;;47.50;37.25;;;;;15.25;74.59;99956.94;5080976;28;8856;-79
2022/11/08 03:45:28;;;;;;;;;47.20;39.40;;;;;15.40;74.06;99955.88;5057713;28;8872;-79
2022/11/08 03:47:57;;;;;;;;;44.20;37.40;;;;;15.66;73.21;99952.00;5048042;28;8978;-79
2022/11/08 03:50:27;;;;;;;;;50.80;36.20;;;;;14.94;75.40;99961.72;4979675;28;8898;-80
2022/11/08 03:52:57;;;;;;;;;34.00;28.40;;;;;15.26;74.50;99965.72;5062969;28;8891;-80
2022/11/08 03:55:27;;;;;;;;;43.20;37.00;;;;;15.56;73.18;99951.28;5043166;28;8875;-79
2022/11/08 03:57:56;;;;;;;;;45.80;38.60;;;;;15.78;72.44;99958.00;5047094;28;8875;-81
2022/11/08 04:00:28;;;;;;;;;47.60;36.20;;;;;15.78;71.55;99952.72;5027196;28;8887;-79
2022/11/08 04:03:01;;;;;;;;;40.00;35.80;;;;;15.98;71.64;99951.53;5062396;28;8955;-79
2022/11/08 04:05:32;;;;;;;;;42.20;35.40;;;;;16.12;70.67;99961.81;5043676;28;8871;-81
2022/11/08 04:08:01;;;;;;;;;38.80;31.40;;;;;16.14;70.28;99955.66;5045839;28;8869;-80
2022/11/08 04:10:30;;;;;;;;;47.80;36.40;;;;;16.32;69.83;99959.72;5046120;28;8891;-79
2022/11/08 04:15:47;;;;;;;;;43.60;35.60;;;;;16.57;69.60;99951.38;5046692;28;8853;-79
2022/11/08 04:21:21;;;;;;;;;97.50;86.25;;;;;16.80;68.93;99943.03;5047819;28;9007;-79
2022/11/08 04:23:51;;;;;;;;;52.00;43.00;;;;;16.88;68.19;99943.81;5032324;28;10446;-80
2022/11/08 04:26:21;;;;;;;;;39.20;33.60;;;;;16.92;67.92;99947.25;5068853;28;8887;-80
2022/11/08 04:28:50;;;;;;;;;35.40;32.80;;;;;16.97;67.80;99940.09;5008951;28;8907;-79
2022/11/08 04:31:20;;;;;;;;;42.80;36.40;;;;;17.05;67.47;99934.69;5075801;28;8857;-79
2022/11/08 04:33:48;;;;;;;;;47.00;38.00;;;;;17.13;66.98;99935.41;5047964;28;8848;-79
2022/11/08 04:36:18;;;;;;;;;37.20;32.80;;;;;17.18;66.64;99936.16;5045317;28;8841;-79
2022/11/08 04:38:48;;;;;;;;;38.00;35.00;;;;;17.24;66.23;99937.78;5002801;28;8852;-79
2022/11/08 04:41:18;;;;;;;;;94.67;84.67;;;;;17.27;66.12;99937.72;5050595;28;8856;-81
2022/11/08 04:43:47;;;;;;;;;73.00;56.25;;;;;17.30;65.82;99937.69;5046612;28;9491;-80
2022/11/08 04:46:18;;;;;;;;;38.60;35.60;;;;;17.36;65.88;99940.19;5050057;28;8899;-81
2022/11/08 04:48:47;;;;;;;;;43.80;35.20;;;;;17.42;65.41;99931.25;4988667;28;8867;-81
2022/11/08 04:51:20;;;;;;;;;45.20;35.80;;;;;17.43;65.16;99943.53;5012354;28;8859;-81
2022/11/08 04:53:49;;;;;;;;;39.40;35.20;;;;;17.48;65.08;99939.03;5030464;28;8867;-80
2022/11/08 04:56:20;;;;;;;;;79.67;66.33;;;;;17.53;64.88;99937.16;5010908;28;8836;-80
2022/11/08 04:58:51;;;;;;;;;56.25;45.00;;;;;17.53;65.01;99942.44;5030051;28;8961;-81
2022/11/08 05:01:21;;;;;;;;;42.20;37.40;;;;;17.56;64.70;99939.75;5028788;28;8924;-79
2022/11/08 05:03:51;;;;;;;;;44.50;39.00;;;;;17.57;64.40;99940.59;5045539;28;8852;-80
2022/11/08 05:06:23;;;;;;;;;40.50;36.50;;;;;17.54;63.56;99946.78;5039831;28;8856;-80
2022/11/08 05:08:53;;;;;;;;;66.75;53.00;;;;;17.47;64.09;99955.75;5048393;28;8861;-80
2022/11/08 05:11:24;;;;;;;;;49.25;42.25;;;;;17.45;64.00;99941.75;5025012;28;8855;-80
2022/11/08 05:13:53;;;;;;;;;44.75;38.50;;;;;17.53;63.92;99948.56;4995383;28;8894;-79
2022/11/08 05:16:24;;;;;;;;;62.50;48.50;;;;;17.37;64.20;99947.16;5029151;28;8855;-80
2022/11/08 05:18:53;;;;;;;;;54.25;43.75;;;;;17.38;64.23;99943.63;5012643;28;8839;-79
2022/11/08 05:24:13;;;;;;;;;40.00;36.00;;;;;17.25;63.84;99955.34;5029620;28;8855;-79
2022/11/08 05:26:44;;;;;;;;;60.25;48.00;;;;;17.14;64.21;99959.09;5046812;28;8839;-80
2022/11/08 05:29:15;;;;;;;;;44.00;38.00;;;;;16.45;66.09;99963.03;5028685;28;8979;-78
2022/11/08 05:31:43;;;;;;;;;48.00;40.00;;;;;16.51;66.44;99962.03;5040850;28;8847;-79
2022/11/08 05:34:12;;;;;;;;;44.75;37.75;;;;;16.57;66.06;99960.16;5031017;28;8860;-80
2022/11/08 05:36:42;;;;;;;;;47.25;36.75;;;;;16.44;66.45;99963.03;5020415;28;8868;-79
2022/11/08 05:39:11;;;;;;;;;44.25;38.00;;;;;16.20;67.01;99965.22;5003501;28;8860;-81
2022/11/08 05:41:40;;;;;;;;;47.25;38.75;;;;;15.10;71.44;99980.78;5030551;28;8852;-80
2022/11/08 05:44:08;;;;;;;;;51.25;39.75;;;;;15.30;70.84;99991.91;4995886;28;8860;-79
2022/11/08 05:46:37;;;;;;;;;49.75;40.75;;;;;15.25;71.50;99983.22;5017902;28;9084;-79
2022/11/08 05:49:06;;;;;;;;;51.50;43.25;;;;;14.95;72.44;99985.34;5028228;28;8941;-79
2022/11/08 05:51:35;;;;;;;;;50.50;40.75;;;;;15.21;72.27;99992.03;4996274;28;8886;-80
2022/11/08 05:54:06;;;;;;;;;51.25;43.25;;;;;14.91;73.01;99993.25;5029107;28;8827;-80
2022/11/08 05:56:36;;;;;;;;;47.00;39.25;;;;;15.23;72.67;99997.25;4998784;28;8842;-80
2022/11/08 05:59:05;;;;;;;;;40.20;37.00;;;;;15.58;71.56;99987.16;5031530;28;8850;-80
2022/11/08 06:01:34;;;;;;;;;46.50;39.25;;;;;15.87;70.31;99987.66;5015240;28;8896;-78
2022/11/08 06:04:02;;;;;;;;;44.00;37.50;;;;;16.11;69.35;99981.16;5029479;28;8843;-82
2022/11/08 06:06:31;;;;;;;;;50.50;41.75;;;;;15.74;69.73;99986.97;5040865;28;8957;-81
2022/11/08 06:09:00;;;;;;;;;49.00;41.50;;;;;15.79;69.86;99990.41;4970130;28;8880;-81
2022/11/08 06:11:30;;;;;;;;;47.00;39.50;;;;;15.73;69.80;99987.84;4970349;28;8861;-82
2022/11/08 06:13:58;;;;;;;;;44.25;37.50;;;;;16.06;69.24;99994.38;4970347;28;8860;-81
2022/11/08 06:16:27;;;;;;;;;43.50;38.50;;;;;16.30;68.64;99998.38;4984073;28;8852;-81
2022/11/08 06:18:56;;;;;;;;;46.00;38.75;;;;;16.53;68.35;99991.84;4977211;28;8914;-79
2022/11/08 06:21:26;;;;;;;;;50.25;41.75;;;;;16.70;67.80;100000.28;5001981;28;9120;-78
2022/11/08 06:23:55;;;;;;;;;44.00;37.50;;;;;16.84;67.20;99993.94;4960530;28;8882;-81
2022/11/08 06:26:24;;;;;;;;;43.20;37.40;;;;;16.98;67.15;100005.09;4980130;28;8872;-81
2022/11/08 06:28:54;;;;;;;;;55.75;43.75;;;;;17.12;66.21;99995.13;4952450;28;8907;-81
2022/11/08 06:31:23;;;;;;;;;52.00;43.50;;;;;17.21;65.81;99994.09;4987496;28;8970;-81
2022/11/08 06:33:52;;;;;;;;;50.25;42.00;;;;;17.31;65.46;100007.94;5009469;28;8990;-81
2022/11/08 06:36:21;;;;;;;;;51.00;41.25;;;;;17.36;64.94;100003.44;5002987;28;8860;-79
2022/11/08 06:38:54;;;;;;;;;49.75;41.75;;;;;17.48;64.82;100010.22;5026425;28;8856;-81
2022/11/08 06:41:23;;;;;;;;;48.20;38.40;;;;;17.52;64.57;100010.13;5009837;28;9622;-80
2022/11/08 06:43:52;;;;;;;;;51.75;43.00;;;;;17.19;64.40;100013.47;5022214;28;8848;-80
2022/11/08 06:46:22;;;;;;;;;47.50;39.00;;;;;17.24;64.33;100011.59;5057062;28;8888;-82
2022/11/08 06:48:51;;;;;;;;;44.00;39.25;;;;;17.29;64.30;100015.88;5073284;28;8856;-80
2022/11/08 06:51:20;;;;;;;;;46.50;38.25;;;;;17.39;64.69;100018.31;5033516;28;8871;-79
2022/11/08 06:53:48;;;;;;;;;42.60;37.40;;;;;17.42;64.21;100013.84;5066200;28;8930;-80
2022/11/08 06:56:17;;;;;;;;;46.75;39.25;;;;;17.54;64.15;100020.63;5025507;28;8887;-81
2022/11/08 06:58:46;;;;;;;;;47.20;39.20;;;;;17.60;63.93;100006.44;5006168;28;8854;-80
2022/11/08 07:01:14;;;;;;;;;48.50;39.50;;;;;17.69;63.59;100014.16;5018223;28;8990;-81
2022/11/08 07:03:44;;;;;;;;;52.50;43.25;;;;;17.64;63.20;100013.41;4992126;28;8860;-82
2022/11/08 07:06:13;;;;;;;;;59.00;47.50;;;;;17.54;63.45;100020.63;5026445;28;8847;-82
2022/11/08 07:08:42;;;;;;;;;49.50;42.00;;;;;17.68;63.39;100013.28;5012821;28;8895;-79
2022/11/08 07:11:11;;;;;;;;;54.00;44.00;;;;;17.67;63.33;100014.19;5007504;28;8887;-83
2022/11/08 07:13:39;;;;;;;;;60.00;45.25;;;;;17.61;63.68;100019.59;5027008;28;8855;-82
2022/11/08 07:16:09;;;;;;;;;59.25;46.50;;;;;17.57;63.89;100020.56;5012076;28;8848;-82
2022/11/08 07:18:39;;;;;;;;;56.00;44.50;;;;;17.59;64.04;100023.19;5028306;28;8877;-82
2022/11/08 07:21:09;;;;;;;;;52.75;43.00;;;;;17.75;63.77;100019.31;5010453;28;8886;-82
2022/11/08 07:23:38;;;;;;;;;52.50;43.75;;;;;17.80;63.56;100022.69;5028747;28;8867;-80
2022/11/08 07:26:09;;;;;;;;;49.25;40.75;;;;;17.91;63.08;100019.84;4978531;28;8886;-83
2022/11/08 07:28:37;;;;;;;;;54.00;44.75;;;;;18.01;63.05;100017.88;5047089;28;8855;-81
2022/11/08 07:31:06;;;;;;;;;53.50;43.75;;;;;18.11;62.72;100016.75;5046451;28;8844;-80
2022/11/08 07:33:35;;;;;;;;;52.75;43.50;;;;;18.14;62.42;100011.38;5042199;28;8841;-80
2022/11/08 07:36:04;;;;;;;;;55.50;42.75;;;;;18.19;62.51;100006.00;5045596;28;8840;-84
2022/11/08 07:38:36;;;;;;;;;52.50;43.25;;;;;18.19;61.90;99998.09;4987134;28;8871;-81
2022/11/08 07:41:05;;;;;;;;;57.75;46.25;;;;;17.88;61.70;100004.09;5044478;28;8843;-80
2022/11/08 07:43:33;;;;;;;;;57.00;45.75;;;;;17.67;62.82;99998.34;5042250;28;8860;-82
2022/11/08 07:46:11;;;;;;;;;53.50;42.25;;;;;17.87;63.08;99999.72;5048909;28;8863;-82
2022/11/08 07:48:39;;;;;;;;;58.00;46.50;;;;;18.04;62.74;100001.97;5039677;28;8905;-82
2022/11/08 07:51:08;;;;;;;;;50.50;42.00;;;;;18.12;62.46;99989.44;5032808;28;8829;-82
2022/11/08 07:53:38;;;;;;;;;57.50;44.00;;;;;18.09;62.08;99995.69;5035287;28;8983;-81
2022/11/08 07:56:07;;;;;;;;;54.00;42.00;;;;;18.26;62.50;99991.72;5052297;28;8869;-82
2022/11/08 07:58:36;;;;;;;;;59.75;45.75;;;;;18.45;62.36;99995.66;5052327;28;9022;-82
2022/11/08 08:01:05;;;;;;;;;51.00;42.00;;;;;18.59;62.12;99995.28;5034833;28;8873;-82
2022/11/08 08:03:34;;;;;;;;;41.00;32.75;;;;;18.69;61.61;99986.25;5001896;28;9413;-82
2022/11/08 08:06:03;;;;;;;;;55.00;44.25;;;;;18.77;61.26;99996.59;5002716;28;8919;-83
2022/11/08 08:08:32;;;;;;;;;50.75;41.50;;;;;18.66;60.21;99993.38;5053753;28;8860;-83
2022/11/08 08:11:03;;;;;;;;;53.75;43.00;;;;;18.65;60.14;99994.28;5015939;28;8891;-82
2022/11/08 08:13:32;;;;;;;;;58.00;44.75;;;;;18.58;59.82;99998.88;5007669;28;8855;-82
2022/11/08 08:16:02;;;;;;;;;55.25;45.00;;;;;18.52;59.82;99988.44;5025655;28;8879;-82
2022/11/08 08:18:30;;;;;;;;;56.75;46.00;;;;;18.64;60.10;99988.13;5015453;28;8863;-81
2022/11/08 08:20:59;;;;;;;;;55.50;45.50;;;;;18.70;60.27;99984.44;5014410;28;9445;-82
2022/11/08 08:23:28;;;;;;;;;55.00;44.00;;;;;18.79;59.71;99989.50;4998471;28;9069;-83
2022/11/08 08:25:57;;;;;;;;;57.25;46.00;;;;;18.81;58.77;99982.41;5021191;28;8847;-83
2022/11/08 08:28:26;;;;;;;;;53.25;44.50;;;;;18.93;58.50;99985.63;5030972;28;8969;-83
2022/11/08 08:30:55;;;;;;;;;60.25;48.25;;;;;18.97;58.31;99985.50;4964931;28;9621;-82
2022/11/08 08:33:24;;;;;;;;;57.00;46.50;;;;;19.05;58.75;99991.44;5014395;28;8973;-82
2022/11/08 08:35:59;;;;;;;;;59.25;46.75;;;;;19.13;58.38;99985.06;5018052;28;8844;-83
2022/11/08 08:38:29;;;;;;;;;56.25;44.50;;;;;19.17;58.28;99987.59;4984078;28;8875;-82
2022/11/08 08:40:58;;;;;;;;;59.00;48.00;;;;;19.20;58.84;99994.56;5015884;28;9048;-82
2022/11/08 08:43:31;;;;;;;;;55.75;46.25;;;;;19.30;58.99;99985.47;5032292;28;9104;-83
2022/11/08 08:46:01;;;;;;;;;64.50;50.00;;;;;19.23;58.47;99992.69;5014350;28;8843;-80
2022/11/08 08:48:29;;;;;;;;;64.00;48.50;;;;;19.11;58.14;99989.53;5042053;28;9684;-83
2022/11/08 08:50:59;;;;;;;;;57.75;47.75;;;;;19.12;58.42;99986.84;5034349;28;8849;-82
2022/11/08 08:53:27;;;;;;;;;59.25;47.50;;;;;19.19;58.64;99991.06;5050257;28;8873;-82
2022/11/08 08:55:56;;;;;;;;;57.00;46.00;;;;;18.91;58.06;99995.38;5050393;28;8891;-81
2022/11/08 08:58:25;;;;;;;;;58.50;46.50;;;;;18.72;58.88;100000.28;5049878;28;9015;-82
2022/11/08 09:01:00;;;;;;;;;59.00;47.75;;;;;18.76;59.20;99994.84;5046477;28;8859;-83
2022/11/08 09:03:48;;;;;;;;;68.00;54.25;;;;;18.35;60.42;99993.28;5029799;28;8994;-81
2022/11/08 09:06:17;;;;;;;;;58.50;48.00;;;;;18.59;60.29;100002.38;5030225;28;8840;-83
2022/11/08 09:08:46;;;;;;;;;58.75;47.50;;;;;18.79;60.87;100008.00;5013577;28;8867;-84
2022/11/08 09:11:15;;;;;;;;;53.00;41.50;;;;;18.91;58.79;100012.09;4979289;28;8941;-83
2022/11/08 09:13:43;;;;;;;;;52.00;43.00;;;;;19.04;57.30;100012.63;4995625;28;9006;-82
2022/11/08 09:16:13;;;;;;;;;53.75;42.75;;;;;19.16;57.77;100007.00;5012612;28;8840;-82
2022/11/08 09:18:42;;;;;;;;;53.00;41.50;;;;;19.25;56.49;100008.50;5013893;28;8860;-83
2022/11/08 09:21:11;;;;;;;;;52.25;42.00;;;;;19.33;56.13;100006.50;5029200;28;8930;-83
2022/11/08 09:23:41;;;;;;;;;51.50;41.75;;;;;19.33;55.58;100009.16;5013315;28;8946;-84
2022/11/08 09:26:11;;;;;;;;;51.25;42.75;;;;;19.43;55.71;100010.63;5029186;28;8864;-81
2022/11/08 09:28:39;;;;;;;;;51.75;39.75;;;;;19.51;56.06;100006.88;5032667;28;8867;-82
2022/11/08 09:31:10;;;;;;;;;51.00;41.50;;;;;19.43;55.59;100001.81;5036752;28;8852;-82
2022/11/08 09:33:40;;;;;;;;;46.25;37.75;;;;;19.43;56.17;99996.50;5034232;28;8855;-82
2022/11/08 09:36:13;;;;;;;;;54.00;43.25;;;;;19.48;55.10;99990.19;5012974;28;8847;-82
2022/11/08 09:38:43;;;;;;;;;52.00;42.00;;;;;19.33;55.72;99995.94;5012134;28;8897;-80
2022/11/08 09:41:55;;;;;;;;;49.50;41.50;;;;;19.41;55.09;99998.34;5029615;28;8866;-81
2022/11/08 09:44:52;;;;;;;;;53.00;42.00;;;;;19.38;55.34;99991.38;4979127;28;9062;-82
2022/11/08 09:47:25;;;;;;;;;47.25;39.50;;;;;19.34;55.16;99984.44;4949110;28;8868;-82
2022/11/08 09:50:04;;;;;;;;;49.00;41.00;;;;;19.44;55.83;99988.53;4933185;28;8859;-82
2022/11/08 09:52:34;;;;;;;;;50.00;41.75;;;;;19.40;55.78;99981.63;4918009;28;8880;-82
2022/11/08 09:55:19;;;;;;;;;48.75;40.50;;;;;19.41;55.00;99979.81;4947778;28;8877;-82
2022/11/08 09:58:02;;;;;;;;;49.50;40.00;;;;;19.50;54.55;99970.75;4950341;28;8866;-82
2022/11/08 10:00:33;;;;;;;;;53.25;42.00;;;;;19.41;54.51;99980.72;4935507;28;9044;-81
2022/11/08 10:03:02;;;;;;;;;50.75;42.50;;;;;19.44;53.85;99974.47;4965135;28;8908;-82
2022/11/08 10:05:39;;;;;;;;;46.25;39.00;;;;;19.58;54.39;99972.25;4935012;28;9923;-84
2022/11/08 10:08:15;;;;;;;;;47.50;39.50;;;;;19.45;54.30;99976.16;4932752;28;8870;-82
2022/11/08 10:10:59;;;;;;;;;47.75;38.75;;;;;19.59;53.92;99976.63;4949264;28;8862;-81
2022/11/08 10:13:38;;;;;;;;;44.25;38.00;;;;;19.65;53.59;99973.78;4949508;28;8867;-81
2022/11/08 10:16:23;;;;;;;;;46.75;39.50;;;;;19.79;54.03;99968.13;4968114;28;8858;-82
2022/11/08 10:19:16;;;;;;;;;53.00;40.25;;;;;19.88;52.87;99961.66;4992338;28;9020;-83
2022/11/08 10:22:01;;;;;;;;;49.00;42.00;;;;;20.02;53.60;99955.94;4992437;28;8890;-83
2022/11/08 10:24:35;;;;;;;;;45.75;38.50;;;;;19.92;53.10;99955.34;5015938;28;8849;-81
2022/11/08 10:27:14;;;;;;;;;48.75;40.75;;;;;19.93;52.63;99962.38;5057338;28;8895;-81
2022/11/08 10:29:55;;;;;;;;;41.00;34.75;;;;;19.86;53.31;99963.47;5049586;28;8879;-83
2022/11/08 10:32:24;;;;;;;;;49.75;41.00;;;;;19.90;52.93;99964.25;5049638;28;8919;-82
2022/11/08 10:35:01;;;;;;;;;44.50;37.25;;;;;19.97;52.56;99965.78;5048289;28;8857;-81
2022/11/08 10:37:32;;;;;;;;;54.75;42.50;;;;;20.00;52.79;99955.06;5046759;28;8844;-82
2022/11/08 10:40:12;;;;;;;;;47.25;39.50;;;;;19.87;52.30;99954.63;5028360;28;8859;-82
2022/11/08 10:42:46;;;;;;;;;48.25;38.75;;;;;19.85;52.51;99961.75;5030906;28;8879;-81
2022/11/08 10:45:14;;;;;;;;;48.00;39.00;;;;;19.86;52.96;99951.09;5015000;28;8898;-83
2022/11/08 10:47:45;;;;;;;;;49.25;40.75;;;;;19.85;52.63;99957.31;5029413;28;8864;-82
2022/11/08 10:50:17;;;;;;;;;48.25;40.75;;;;;20.00;52.50;99953.31;5011817;28;8851;-82
2022/11/08 10:52:55;;;;;;;;;49.00;40.50;;;;;20.10;52.36;99950.38;5010921;28;9723;-80
2022/11/08 10:55:27;;;;;;;;;51.50;43.50;;;;;20.06;51.64;99954.91;4978228;28;8875;-81
2022/11/08 10:57:56;;;;;;;;;52.50;40.75;;;;;20.10;51.35;99943.28;5028059;28;8880;-81
2022/11/08 11:00:28;;;;;;;;;52.75;43.50;;;;;20.16;52.07;99943.06;5027457;28;8875;-82
2022/11/08 11:02:59;;;;;;;;;49.75;38.75;;;;;20.11;51.73;99929.13;5010705;28;8860;-82
2022/11/08 11:05:31;;;;;;;;;49.00;40.75;;;;;20.16;51.56;99935.13;5030141;28;8855;-82
2022/11/08 11:08:18;;;;;;;;;53.00;42.50;;;;;20.25;51.31;99926.03;5011598;28;8883;-83
2022/11/08 11:10:49;;;;;;;;;49.75;40.25;;;;;20.25;50.91;99921.56;4951837;28;8949;-81
2022/11/08 11:13:21;;;;;;;;;52.00;41.00;;;;;20.24;51.21;99925.16;4952258;28;8890;-82
2022/11/08 11:15:52;;;;;;;;;52.50;42.25;;;;;20.29;50.65;99918.84;4968827;28;8863;-81
2022/11/08 11:18:26;;;;;;;;;46.00;38.25;;;;;20.35;51.75;99913.31;4954467;28;8871;-81
2022/11/08 11:21:15;;;;;;;;;49.25;37.75;;;;;20.51;51.13;99916.28;4975685;28;8906;-82
2022/11/08 11:23:47;;;;;;;;;45.25;39.00;;;;;20.57;50.31;99913.44;4975404;28;8897;-80
2022/11/08 11:26:27;;;;;;;;;43.00;36.25;;;;;20.66;50.27;99905.16;4955339;28;8871;-82
2022/11/08 11:29:05;;;;;;;;;52.50;43.25;;;;;20.87;51.38;99907.94;4970786;28;8887;-82
2022/11/08 11:31:36;;;;;;;;;49.25;40.75;;;;;20.82;50.02;99910.78;4971818;28;8867;-81
2022/11/08 11:34:35;;;;;;;;;50.00;41.00;;;;;21.02;49.67;99904.75;4956148;28;8879;-82
2022/11/08 11:37:15;;;;;;;;;50.25;40.25;;;;;20.92;51.08;99904.19;4955245;28;8872;-82
2022/11/08 11:39:56;;;;;;;;;47.00;40.00;;;;;20.94;50.31;99910.31;4955224;28;8955;-81
2022/11/08 11:42:31;;;;;;;;;48.50;41.75;;;;;20.71;50.95;99905.00;4908250;28;9046;-82
2022/11/08 11:45:19;;;;;;;;;48.75;38.00;;;;;20.81;50.45;99909.94;4955016;28;8982;-82
2022/11/08 11:47:52;;;;;;;;;50.50;42.75;;;;;20.81;51.03;99901.09;4978955;28;8848;-82
2022/11/08 11:50:44;;;;;;;;;49.75;40.25;;;;;21.05;50.54;99904.63;4998762;28;8897;-80
2022/11/08 11:53:18;;;;;;;;;46.50;38.50;;;;;20.77;50.30;99908.28;4939132;29;9632;-81
2022/11/08 11:56:06;;;;;;;;;44.50;37.50;;;;;20.74;51.18;99908.41;4934974;29;8882;-82
2022/11/08 11:59:19;;;;;;;;;53.75;42.50;;;;;20.83;50.12;99904.53;4919431;29;9019;-81
2022/11/08 12:02:03;;;;;;;;;56.25;41.25;;;;;20.73;50.64;99905.81;4858987;29;8931;-81